createdAt,value
2017-09-04T00:02:07.778Z,99.90
2017-09-04T00:04:36.841Z,99.90
2017-09-04T00:07:05.123Z,99.90
2017-09-04T00:09:33.536Z,99.90
2017-09-04T00:12:01.800Z,99.90
2017-09-04T00:14:30.057Z,99.90
2017-09-04T00:16:58.433Z,99.90
2017-09-04T00:19:26.751Z,99.90
2017-09-04T00:21:55.051Z,99.90
2017-09-04T00:24:23.300Z,99.90
2017-09-04T00:26:51.574Z,99.90
2017-09-04T00:29:19.862Z,99.90
2017-09-04T00:31:48.239Z,99.90
2017-09-04T00:34:16.612Z,99.90
2017-09-04T00:36:44.901Z,99.90
2017-09-04T00:39:13.954Z,99.90
2017-09-04T00:41:42.221Z,99.90
2017-09-04T00:44:10.513Z,99.90
2017-09-04T00:46:38.780Z,99.90
2017-09-04T00:49:07.108Z,99.90
2017-09-04T00:51:35.352Z,99.90
2017-09-04T00:54:03.660Z,99.90
2017-09-04T00:56:32.022Z,99.90
2017-09-04T00:59:00.339Z,99.90
2017-09-04T01:01:28.638Z,99.90
2017-09-04T01:03:56.906Z,99.90
2017-09-04T01:06:26.160Z,99.90
2017-09-04T01:08:54.427Z,99.90
2017-09-04T01:11:22.721Z,99.90
2017-09-04T01:13:51.000Z,99.90
2017-09-04T01:16:19.309Z,99.90
2017-09-04T01:18:47.573Z,99.90
2017-09-04T01:21:15.852Z,99.90
2017-09-04T01:23:44.138Z,99.90
2017-09-04T01:26:12.800Z,99.90
2017-09-04T01:28:41.121Z,99.90
2017-09-04T01:31:09.504Z,99.90
2017-09-04T01:33:37.777Z,99.90
2017-09-04T01:36:06.048Z,99.90
2017-09-04T01:38:34.372Z,99.90
2017-09-04T01:41:02.633Z,99.90
2017-09-04T01:43:30.957Z,99.90
2017-09-04T01:45:59.257Z,99.90
2017-09-04T01:48:27.572Z,99.90
2017-09-04T01:50:55.880Z,99.90
2017-09-04T01:53:24.157Z,99.90
2017-09-04T01:55:52.484Z,99.90
2017-09-04T01:58:20.740Z,99.90
2017-09-04T02:00:49.158Z,99.90
2017-09-04T02:03:17.425Z,99.90
2017-09-04T02:05:45.702Z,99.90
2017-09-04T02:08:14.084Z,99.90
2017-09-04T02:10:42.345Z,99.90
2017-09-04T02:13:10.751Z,99.90
2017-09-04T02:15:39.019Z,99.90
2017-09-04T02:18:07.335Z,99.90
2017-09-04T02:20:35.612Z,99.90
2017-09-04T02:23:03.918Z,99.90
2017-09-04T02:25:32.208Z,99.90
2017-09-04T02:28:00.472Z,99.90
2017-09-04T02:30:28.752Z,99.90
2017-09-04T02:32:57.053Z,99.90
2017-09-04T02:35:25.324Z,99.90
2017-09-04T02:37:53.711Z,99.90
2017-09-04T02:40:22.014Z,99.90
2017-09-04T02:42:50.279Z,99.90
2017-09-04T02:45:18.653Z,99.90
2017-09-04T02:47:47.124Z,99.90
2017-09-04T02:50:15.401Z,99.90
2017-09-04T02:52:43.666Z,99.90
2017-09-04T02:55:11.963Z,99.90
2017-09-04T02:57:40.324Z,99.90
2017-09-04T03:00:08.613Z,99.90
2017-09-04T03:02:36.889Z,99.90
2017-09-04T03:05:05.163Z,99.90
2017-09-04T03:07:33.544Z,99.90
2017-09-04T03:10:01.827Z,99.90
2017-09-04T03:12:30.219Z,99.90
2017-09-04T03:14:58.476Z,99.90
2017-09-04T03:17:26.758Z,99.90
2017-09-04T03:19:55.042Z,99.90
2017-09-04T03:22:23.300Z,99.90
2017-09-04T03:24:51.688Z,99.90
2017-09-04T03:27:19.949Z,99.90
2017-09-04T03:29:48.242Z,99.90
2017-09-04T03:32:16.508Z,99.90
2017-09-04T03:34:44.914Z,99.90
2017-09-04T03:37:13.268Z,99.90
2017-09-04T03:39:41.534Z,99.90
2017-09-04T03:42:09.832Z,99.90
2017-09-04T03:44:38.088Z,99.90
2017-09-04T03:47:06.377Z,99.90
2017-09-04T03:49:35.418Z,99.90
2017-09-04T03:52:03.708Z,99.90
2017-09-04T03:54:31.969Z,99.90
2017-09-04T03:57:00.240Z,99.90
2017-09-04T03:59:28.495Z,99.90
2017-09-04T04:01:56.784Z,99.90
2017-09-04T04:04:25.052Z,99.90
2017-09-04T04:06:53.385Z,99.90
2017-09-04T04:09:21.768Z,99.90
2017-09-04T04:11:50.019Z,99.90
2017-09-04T04:14:18.310Z,99.90
2017-09-04T04:16:46.573Z,99.90
2017-09-04T04:19:14.884Z,99.90
2017-09-04T04:21:43.138Z,99.90
2017-09-04T04:24:11.541Z,99.90
2017-09-04T04:26:39.813Z,99.90
2017-09-04T04:29:08.203Z,99.90
2017-09-04T04:31:36.482Z,99.90
2017-09-04T04:34:04.747Z,99.90
2017-09-04T04:36:33.117Z,99.90
2017-09-04T04:39:01.378Z,99.90
2017-09-04T04:41:29.655Z,99.90
2017-09-04T04:43:57.914Z,99.90
2017-09-04T04:46:26.220Z,99.90
2017-09-04T04:48:54.487Z,99.90
2017-09-04T04:51:22.740Z,99.90
2017-09-04T04:53:51.016Z,99.90
2017-09-04T04:56:19.292Z,99.90
2017-09-04T04:58:47.604Z,99.90
2017-09-04T05:01:15.894Z,99.90
2017-09-04T05:03:44.170Z,99.90
2017-09-04T05:06:12.443Z,99.90
2017-09-04T05:08:40.826Z,99.90
2017-09-04T05:11:09.103Z,99.90
2017-09-04T05:13:37.385Z,99.90
2017-09-04T05:16:05.823Z,99.90
2017-09-04T05:18:34.654Z,99.90
2017-09-04T05:21:02.942Z,99.90
2017-09-04T05:23:32.760Z,99.90
2017-09-04T05:26:01.047Z,99.90
2017-09-04T05:28:29.344Z,99.90
2017-09-04T05:30:57.634Z,99.90
2017-09-04T05:33:26.011Z,99.90
2017-09-04T05:35:54.284Z,99.90
2017-09-04T05:38:22.661Z,99.90
2017-09-04T05:40:50.941Z,99.90
2017-09-04T05:43:20.001Z,99.90
2017-09-04T05:45:48.261Z,99.90
2017-09-04T05:48:16.540Z,99.90
2017-09-04T05:50:44.803Z,99.90
2017-09-04T05:53:13.113Z,99.90
2017-09-04T05:55:41.488Z,99.90
2017-09-04T05:58:09.736Z,99.90
2017-09-04T06:00:38.030Z,99.90
2017-09-04T06:03:06.353Z,99.90
2017-09-04T06:05:36.053Z,99.90
2017-09-04T06:08:05.681Z,99.90
2017-09-04T06:10:34.020Z,99.90
2017-09-04T06:13:02.298Z,99.90
2017-09-04T06:15:30.590Z,99.90
2017-09-04T06:17:58.976Z,99.90
2017-09-04T06:20:27.235Z,99.90
2017-09-04T06:22:55.514Z,99.90
2017-09-04T06:25:23.782Z,99.90
2017-09-04T06:27:52.064Z,99.90
2017-09-04T06:30:20.337Z,99.90
2017-09-04T06:32:48.608Z,99.90
2017-09-04T06:35:16.893Z,99.90
2017-09-04T06:37:45.194Z,99.90
2017-09-04T06:40:13.476Z,99.90
2017-09-04T06:42:41.771Z,99.90
2017-09-04T06:45:10.130Z,99.90
2017-09-04T06:47:38.401Z,99.90
2017-09-04T06:50:06.705Z,99.90
2017-09-04T06:52:35.764Z,99.90
2017-09-04T06:55:04.163Z,99.90
2017-09-04T06:57:32.427Z,99.90
2017-09-04T07:00:00.692Z,99.90
2017-09-04T07:02:28.991Z,99.90
2017-09-04T07:04:57.369Z,99.90
2017-09-04T07:07:25.645Z,99.90
2017-09-04T07:09:53.935Z,99.90
2017-09-04T07:12:22.218Z,99.90
2017-09-04T07:14:50.473Z,99.90
2017-09-04T07:17:18.761Z,99.90
2017-09-04T07:19:47.027Z,99.90
2017-09-04T07:22:15.410Z,99.90
2017-09-04T07:24:43.687Z,99.90
2017-09-04T07:27:12.096Z,99.90
2017-09-04T07:29:40.449Z,99.90
2017-09-04T07:32:08.835Z,99.90
2017-09-04T07:34:37.111Z,99.90
2017-09-04T07:37:05.389Z,99.90
2017-09-04T07:39:33.754Z,99.90
2017-09-04T07:42:02.026Z,99.90
2017-09-04T07:44:30.422Z,99.90
2017-09-04T07:46:58.688Z,99.90
2017-09-04T07:49:26.989Z,99.90
2017-09-04T07:51:55.241Z,99.90
2017-09-04T07:54:23.549Z,99.90
2017-09-04T07:56:52.586Z,99.90
2017-09-04T07:59:20.859Z,99.90
2017-09-04T08:01:49.139Z,99.90
2017-09-04T08:04:17.409Z,99.90
2017-09-04T08:06:45.708Z,99.90
2017-09-04T08:09:14.118Z,99.90
2017-09-04T08:11:43.156Z,99.90
2017-09-04T08:14:11.424Z,99.90
2017-09-04T08:16:39.750Z,99.90
2017-09-04T08:19:08.030Z,99.90
2017-09-04T08:21:36.410Z,99.90
2017-09-04T08:24:04.785Z,99.90
2017-09-04T08:26:33.033Z,99.90
2017-09-04T08:29:01.324Z,99.90
2017-09-04T08:31:29.634Z,99.90
2017-09-04T08:33:57.928Z,99.90
2017-09-04T08:36:26.189Z,99.90
2017-09-04T08:38:54.465Z,99.90
2017-09-04T08:41:22.719Z,99.90
2017-09-04T08:43:51.107Z,99.90
2017-09-04T08:46:19.358Z,99.90
2017-09-04T08:48:47.632Z,99.90
2017-09-04T08:51:15.941Z,99.90
2017-09-04T08:53:44.201Z,99.90
2017-09-04T08:56:12.899Z,99.90
2017-09-04T08:58:41.148Z,98.90
2017-09-04T09:01:09.443Z,99.00
2017-09-04T09:03:37.704Z,99.50
2017-09-04T09:06:06.109Z,98.70
2017-09-04T09:08:34.490Z,99.20
2017-09-04T09:11:02.771Z,99.30
2017-09-04T09:13:31.145Z,99.10
2017-09-04T09:15:59.400Z,97.50
2017-09-04T09:18:27.701Z,98.50
2017-09-04T09:20:55.965Z,99.00
2017-09-04T09:23:24.250Z,97.70
2017-09-04T09:25:52.511Z,98.30
2017-09-04T09:28:20.828Z,97.00
2017-09-04T09:30:49.076Z,97.00
2017-09-04T09:33:17.337Z,97.30
2017-09-04T09:35:45.636Z,97.80
2017-09-04T09:38:13.925Z,95.70
2017-09-04T09:40:42.220Z,95.50
2017-09-04T09:43:10.575Z,96.10
2017-09-04T09:45:38.948Z,94.20
2017-09-04T09:48:07.248Z,95.40
2017-09-04T09:50:35.533Z,95.80
2017-09-04T09:53:04.580Z,94.40
2017-09-04T09:55:32.907Z,94.00
2017-09-04T09:58:01.198Z,94.40
2017-09-04T10:00:29.466Z,92.80
2017-09-04T10:02:58.535Z,93.00
2017-09-04T10:05:26.789Z,93.00
2017-09-04T10:07:55.092Z,92.60
2017-09-04T10:10:23.367Z,92.40
2017-09-04T10:12:51.637Z,91.90
2017-09-04T10:15:19.911Z,92.20
2017-09-04T10:17:48.209Z,91.80
2017-09-04T10:20:16.464Z,92.10
2017-09-04T10:22:44.739Z,92.40
2017-09-04T10:25:13.040Z,92.10
2017-09-04T10:27:41.293Z,90.40
2017-09-04T10:30:09.594Z,90.20
2017-09-04T10:32:37.843Z,88.00
2017-09-04T10:35:06.151Z,89.50
2017-09-04T10:37:34.430Z,88.80
2017-09-04T10:40:02.718Z,90.00
2017-09-04T10:42:30.974Z,87.60
2017-09-04T10:44:59.237Z,88.00
2017-09-04T10:47:27.548Z,85.10
2017-09-04T10:49:55.834Z,85.20
2017-09-04T10:52:24.125Z,86.50
2017-09-04T10:54:52.402Z,82.40
2017-09-04T10:57:20.715Z,84.20
2017-09-04T10:59:48.993Z,83.50
2017-09-04T11:02:17.267Z,84.20
2017-09-04T11:04:45.583Z,83.90
2017-09-04T11:07:14.663Z,81.70
2017-09-04T11:09:42.957Z,82.80
2017-09-04T11:12:11.234Z,82.20
2017-09-04T11:14:39.511Z,81.40
2017-09-04T11:17:07.764Z,82.90
2017-09-04T11:19:36.065Z,81.70
2017-09-04T11:22:04.324Z,83.10
2017-09-04T11:24:32.610Z,81.70
2017-09-04T11:27:00.867Z,81.20
2017-09-04T11:29:29.189Z,81.60
2017-09-04T11:31:57.443Z,82.30
2017-09-04T11:34:25.713Z,82.80
2017-09-04T11:36:53.999Z,83.70
2017-09-04T11:39:22.266Z,80.80
2017-09-04T11:41:50.559Z,80.00
2017-09-04T11:44:18.842Z,76.70
2017-09-04T11:46:47.150Z,77.40
2017-09-04T11:49:15.415Z,76.90
2017-09-04T11:51:43.705Z,77.30
2017-09-04T11:54:12.035Z,77.00
2017-09-04T11:56:40.341Z,76.40
2017-09-04T11:59:08.650Z,77.00
2017-09-04T12:01:36.911Z,76.40
2017-09-04T12:04:05.477Z,74.60
2017-09-04T12:06:34.012Z,74.40
2017-09-04T12:09:02.534Z,76.00
2017-09-04T12:11:30.957Z,73.90
2017-09-04T12:13:59.270Z,74.60
2017-09-04T12:16:27.534Z,72.00
2017-09-04T12:18:55.927Z,72.90
2017-09-04T12:21:24.221Z,70.90
2017-09-04T12:23:52.471Z,72.40
2017-09-04T12:26:20.835Z,72.20
2017-09-04T12:28:49.102Z,73.60
2017-09-04T12:31:17.430Z,71.60
2017-09-04T12:33:45.704Z,68.30
2017-09-04T12:36:13.985Z,69.00
2017-09-04T12:38:42.277Z,69.50
2017-09-04T12:41:10.785Z,69.30
2017-09-04T12:43:41.089Z,68.70
2017-09-04T12:46:12.435Z,68.00
2017-09-04T12:48:41.438Z,68.30
2017-09-04T12:51:10.128Z,68.50
2017-09-04T12:53:38.470Z,66.60
2017-09-04T12:56:07.654Z,66.40
2017-09-04T12:58:36.021Z,66.90
2017-09-04T13:01:04.359Z,65.30
2017-09-04T13:03:32.701Z,64.80
2017-09-04T13:06:01.007Z,63.40
2017-09-04T13:08:29.318Z,66.70
2017-09-04T13:11:03.306Z,64.80
2017-09-04T13:13:31.725Z,63.50
2017-09-04T13:19:21.510Z,62.50
2017-09-04T13:21:55.636Z,59.60
2017-09-04T13:24:30.290Z,60.40
2017-09-04T13:27:04.445Z,56.20
2017-09-04T13:29:38.389Z,54.70
2017-09-04T13:35:10.269Z,58.20
2017-09-04T13:37:44.147Z,57.40
2017-09-04T13:43:18.977Z,54.90
2017-09-04T13:45:53.004Z,55.00
2017-09-04T13:51:20.717Z,48.80
2017-09-04T13:53:52.975Z,50.00
2017-09-04T13:56:29.996Z,51.70
2017-09-04T13:59:09.112Z,53.20
2017-09-04T14:04:32.761Z,57.10
2017-09-04T14:07:06.697Z,56.70
2017-09-04T14:09:40.767Z,56.60
2017-09-04T14:15:11.386Z,50.80
2017-09-04T14:17:45.459Z,49.90
2017-09-04T14:20:13.784Z,48.70
2017-09-04T14:22:42.071Z,47.60
2017-09-04T14:25:10.353Z,46.50
2017-09-04T14:27:38.690Z,45.00
2017-09-04T14:30:06.955Z,47.00
2017-09-04T14:32:35.209Z,47.20
2017-09-04T14:35:03.525Z,46.90
2017-09-04T14:37:31.803Z,46.80
2017-09-04T14:40:00.071Z,45.60
2017-09-04T14:42:28.935Z,44.70
2017-09-04T14:44:59.028Z,45.50
2017-09-04T14:47:33.827Z,45.10
2017-09-04T14:50:02.117Z,43.10
2017-09-04T14:52:30.390Z,43.50
2017-09-04T14:54:58.671Z,44.30
2017-09-04T14:57:26.945Z,45.20
2017-09-04T14:59:55.208Z,45.90
2017-09-04T15:02:23.496Z,46.00
2017-09-04T15:04:51.768Z,46.40
2017-09-04T15:07:20.046Z,45.90
2017-09-04T15:09:48.306Z,48.50
2017-09-04T15:12:16.591Z,47.20
2017-09-04T15:14:45.620Z,48.50
2017-09-04T15:17:13.905Z,48.20
2017-09-04T15:19:42.211Z,50.20
2017-09-04T15:22:10.500Z,50.00
2017-09-04T15:24:38.778Z,50.30
2017-09-04T15:27:07.079Z,50.80
2017-09-04T15:29:35.361Z,50.80
2017-09-04T15:32:03.636Z,51.90
2017-09-04T15:34:31.922Z,51.40
2017-09-04T15:37:00.217Z,51.50
2017-09-04T15:39:28.498Z,51.50
2017-09-04T15:41:56.750Z,51.70
2017-09-04T15:44:25.042Z,52.40
2017-09-04T15:46:53.318Z,53.00
2017-09-04T15:49:21.599Z,54.00
2017-09-04T15:51:49.889Z,53.90
2017-09-04T15:54:18.149Z,53.70
2017-09-04T15:56:46.435Z,53.80
2017-09-04T15:59:14.683Z,53.30
2017-09-04T16:01:42.973Z,53.50
2017-09-04T16:04:11.289Z,54.30
2017-09-04T16:06:39.588Z,54.80
2017-09-04T16:09:07.835Z,54.90
2017-09-04T16:14:33.585Z,53.30
2017-09-04T16:20:02.299Z,50.80
2017-09-04T16:22:31.149Z,50.30
2017-09-04T16:24:59.439Z,50.20
2017-09-04T16:27:28.669Z,50.40
2017-09-04T16:30:02.551Z,50.00
2017-09-04T16:35:27.827Z,49.50
2017-09-04T16:38:13.758Z,50.30
2017-09-04T16:40:42.007Z,50.30
2017-09-04T16:43:23.125Z,50.70
2017-09-04T16:45:55.051Z,50.80
2017-09-04T16:48:27.216Z,50.50
2017-09-04T16:51:00.056Z,50.80
2017-09-04T16:53:28.933Z,51.00
2017-09-04T16:56:08.917Z,50.10
2017-09-04T16:58:37.215Z,50.70
2017-09-04T17:01:05.493Z,50.50
2017-09-04T17:03:33.775Z,50.70
2017-09-04T17:06:02.042Z,50.70
2017-09-04T17:08:30.323Z,51.40
2017-09-04T17:10:59.502Z,51.20
2017-09-04T17:13:27.760Z,51.50
2017-09-04T17:15:56.049Z,52.30
2017-09-04T17:21:32.357Z,52.50
2017-09-04T17:24:01.534Z,53.10
2017-09-04T17:26:29.795Z,54.20
2017-09-04T17:28:58.059Z,55.00
2017-09-04T17:31:26.346Z,55.50
2017-09-04T17:33:54.647Z,56.40
2017-09-04T17:36:23.001Z,57.60
2017-09-04T17:38:51.273Z,58.80
2017-09-04T17:41:19.581Z,59.70
2017-09-04T17:43:47.836Z,61.90
2017-09-04T17:46:16.096Z,63.00
2017-09-04T17:48:44.419Z,64.20
2017-09-04T17:51:12.775Z,65.30
2017-09-04T17:53:41.067Z,65.00
2017-09-04T17:56:09.346Z,66.20
2017-09-04T17:58:37.640Z,67.70
2017-09-04T18:01:05.913Z,68.40
2017-09-04T18:03:34.235Z,69.00
2017-09-04T18:06:02.513Z,70.10
2017-09-04T18:08:30.843Z,71.50
2017-09-04T18:10:59.198Z,70.80
2017-09-04T18:13:27.495Z,71.40
2017-09-04T18:15:55.773Z,72.10
2017-09-04T18:18:24.053Z,73.00
2017-09-04T18:20:52.338Z,73.80
2017-09-04T18:23:20.611Z,74.40
2017-09-04T18:28:23.485Z,76.20
2017-09-04T18:30:51.793Z,77.30
2017-09-04T18:33:20.126Z,77.20
2017-09-04T18:35:48.416Z,77.80
2017-09-04T18:38:16.704Z,78.40
2017-09-04T18:40:44.983Z,79.20
2017-09-04T18:43:13.262Z,80.00
2017-09-04T18:45:41.532Z,80.60
2017-09-04T18:48:09.827Z,81.20
2017-09-04T18:50:38.118Z,81.90
2017-09-04T18:53:06.399Z,82.20
2017-09-04T18:55:34.680Z,82.20
2017-09-04T18:58:02.995Z,83.40
2017-09-04T19:00:31.244Z,84.00
2017-09-04T19:02:59.527Z,85.70
2017-09-04T19:05:27.814Z,86.00
2017-09-04T19:07:56.077Z,85.30
2017-09-04T19:10:24.352Z,85.90
2017-09-04T19:12:52.617Z,86.50
2017-09-04T19:15:20.897Z,87.20
2017-09-04T19:17:49.154Z,87.30
2017-09-04T19:20:17.475Z,87.60
2017-09-04T19:22:45.786Z,87.90
2017-09-04T19:25:14.099Z,88.30
2017-09-04T19:27:42.392Z,88.50
2017-09-04T19:30:10.666Z,88.80
2017-09-04T19:32:38.959Z,89.30
2017-09-04T19:35:07.221Z,89.50
2017-09-04T19:37:35.535Z,89.60
2017-09-04T19:40:03.818Z,89.60
2017-09-04T19:42:32.100Z,90.00
2017-09-04T19:45:00.368Z,90.10
2017-09-04T19:47:28.671Z,90.40
2017-09-04T19:49:56.969Z,90.50
2017-09-04T19:52:25.292Z,91.20
2017-09-04T19:54:53.566Z,91.40
2017-09-04T19:57:21.861Z,91.20
2017-09-04T19:59:50.136Z,91.60
2017-09-04T20:02:18.403Z,91.80
2017-09-04T20:04:46.691Z,92.20
2017-09-04T20:07:14.953Z,92.00
2017-09-04T20:09:43.262Z,92.20
2017-09-04T20:12:11.519Z,93.00
2017-09-04T20:14:39.882Z,92.60
2017-09-04T20:17:08.273Z,92.60
2017-09-04T20:19:36.547Z,93.10
2017-09-04T20:22:04.850Z,93.10
2017-09-04T20:24:33.273Z,93.30
2017-09-04T20:27:01.818Z,93.50
2017-09-04T20:29:30.407Z,94.90
2017-09-04T20:32:01.458Z,96.10
2017-09-04T20:34:30.804Z,94.40
2017-09-04T20:36:59.558Z,94.30
2017-09-04T20:39:28.390Z,94.60
2017-09-04T20:41:59.709Z,94.60
2017-09-04T20:44:31.468Z,94.80
2017-09-04T20:47:07.324Z,95.10
2017-09-04T20:49:36.900Z,95.30
2017-09-04T20:52:05.602Z,95.50
2017-09-04T20:54:36.034Z,95.70
2017-09-04T20:57:05.351Z,96.20
2017-09-04T20:59:35.580Z,96.40
2017-09-04T21:02:05.185Z,97.20
2017-09-04T21:04:37.232Z,97.40
2017-09-04T21:07:05.877Z,98.40
2017-09-04T21:09:36.167Z,97.50
2017-09-04T21:12:05.555Z,98.90
2017-09-04T21:14:35.002Z,98.60
2017-09-04T21:17:04.461Z,98.20
2017-09-04T21:19:34.359Z,98.40
2017-09-04T21:22:03.132Z,98.60
2017-09-04T21:24:32.179Z,98.80
2017-09-04T21:27:00.941Z,98.90
2017-09-04T21:29:29.959Z,98.90
2017-09-04T21:31:58.291Z,99.90
2017-09-04T21:34:27.087Z,99.90
2017-09-04T21:36:55.488Z,99.90
2017-09-04T21:39:23.989Z,99.90
2017-09-04T21:41:52.683Z,99.90
2017-09-04T21:44:21.227Z,99.90
2017-09-04T21:46:49.577Z,99.90
2017-09-04T21:49:18.086Z,99.90
2017-09-04T21:51:46.517Z,99.90
2017-09-04T21:54:15.462Z,99.90
2017-09-04T21:56:43.901Z,99.90
2017-09-04T21:59:12.448Z,99.90
2017-09-04T22:01:40.754Z,99.90
2017-09-04T22:04:09.197Z,99.90
2017-09-04T22:06:38.630Z,99.90
2017-09-04T22:09:07.275Z,99.90
2017-09-04T22:11:35.695Z,99.90
2017-09-04T22:14:04.032Z,99.90
2017-09-04T22:16:32.313Z,99.90
2017-09-04T22:19:00.601Z,99.90
2017-09-04T22:21:28.847Z,99.90
2017-09-04T22:23:57.163Z,99.90
2017-09-04T22:26:25.407Z,99.90
2017-09-04T22:28:53.685Z,99.90
2017-09-04T22:31:21.992Z,99.90
2017-09-04T22:33:50.254Z,99.90
2017-09-04T22:36:18.540Z,99.90
2017-09-04T22:38:46.795Z,99.90
2017-09-04T22:41:15.085Z,99.90
2017-09-04T22:43:43.355Z,99.90
2017-09-04T22:46:11.651Z,99.90
2017-09-04T22:48:40.109Z,99.90
2017-09-04T22:51:08.372Z,99.90
2017-09-04T22:53:36.667Z,99.90
2017-09-04T22:56:04.943Z,99.90
2017-09-04T22:58:33.646Z,99.90
2017-09-04T23:01:01.922Z,99.90
2017-09-04T23:03:30.212Z,99.90
2017-09-04T23:05:58.478Z,99.90
2017-09-04T23:08:26.755Z,99.90
2017-09-04T23:10:55.017Z,99.90
2017-09-04T23:13:23.286Z,99.90
2017-09-04T23:15:51.570Z,99.90
2017-09-04T23:18:19.834Z,99.90
2017-09-04T23:20:48.106Z,99.90
2017-09-04T23:23:16.373Z,99.90
2017-09-04T23:25:44.661Z,99.90
2017-09-04T23:28:12.969Z,99.90
2017-09-04T23:30:41.286Z,99.90
2017-09-04T23:33:09.562Z,99.90
2017-09-04T23:35:37.861Z,99.90
2017-09-04T23:38:06.155Z,99.90
2017-09-04T23:40:34.429Z,99.90
2017-09-04T23:43:02.718Z,99.90
2017-09-04T23:45:30.975Z,99.90
2017-09-04T23:47:59.288Z,99.90
2017-09-04T23:50:27.567Z,99.90
2017-09-04T23:52:55.835Z,99.90
2017-09-04T23:55:24.105Z,99.90
2017-09-04T23:57:52.375Z,99.90
